sensor_id;sensor_type;location;lat;lon;timestamp;P1;durP1;ratioP1;P2;durP2;ratioP2
18867;SDS011;9563;49.240;9.088;2023-05-29T05:02:33;4.68;;;2.70;;
18867;SDS011;9563;49.240;9.088;2023-05-29T05:05:01;4.43;;;2.67;;
18867;SDS011;9563;49.240;9.088;2023-05-29T05:07:28;6.57;;;2.80;;
18867;SDS011;9563;49.240;9.088;2023-05-29T05:09:55;6.22;;;3.20;;
18867;SDS011;9563;49.240;9.088;2023-05-29T05:12:22;6.18;;;2.92;;
18867;SDS011;9563;49.240;9.088;2023-05-29T05:14:49;7.78;;;2.72;;
18867;SDS011;9563;49.240;9.088;2023-05-29T05:17:16;8.52;;;2.63;;
18867;SDS011;9563;49.240;9.088;2023-05-29T05:19:44;5.50;;;2.33;;
18867;SDS011;9563;49.240;9.088;2023-05-29T05:22:11;5.68;;;2.72;;
18867;SDS011;9563;49.240;9.088;2023-05-29T05:24:38;6.00;;;2.67;;
18867;SDS011;9563;49.240;9.088;2023-05-29T05:27:04;5.38;;;2.67;;
18867;SDS011;9563;49.240;9.088;2023-05-29T05:29:31;5.13;;;2.55;;
18867;SDS011;9563;49.240;9.088;2023-05-29T05:31:59;6.10;;;3.03;;
18867;SDS011;9563;49.240;9.088;2023-05-29T05:34:25;7.13;;;3.25;;
18867;SDS011;9563;49.240;9.088;2023-05-29T05:36:54;5.18;;;2.70;;
18867;SDS011;9563;49.240;9.088;2023-05-29T05:39:21;6.85;;;2.60;;
18867;SDS011;9563;49.240;9.088;2023-05-29T05:41:47;5.90;;;2.53;;
18867;SDS011;9563;49.240;9.088;2023-05-29T05:44:15;7.47;;;2.67;;
18867;SDS011;9563;49.240;9.088;2023-05-29T05:46:42;9.80;;;2.85;;
18867;SDS011;9563;49.240;9.088;2023-05-29T05:49:09;7.43;;;2.88;;
18867;SDS011;9563;49.240;9.088;2023-05-29T05:51:36;6.68;;;2.53;;
18867;SDS011;9563;49.240;9.088;2023-05-29T05:54:05;9.63;;;2.83;;
18867;SDS011;9563;49.240;9.088;2023-05-29T05:56:31;5.72;;;2.58;;
18867;SDS011;9563;49.240;9.088;2023-05-29T05:58:58;5.40;;;2.25;;
18867;SDS011;9563;49.240;9.088;2023-05-29T06:01:25;7.82;;;3.35;;
18867;SDS011;9563;49.240;9.088;2023-05-29T06:03:52;5.05;;;2.65;;
18867;SDS011;9563;49.240;9.088;2023-05-29T06:06:19;8.55;;;2.72;;
18867;SDS011;9563;49.240;9.088;2023-05-29T06:08:46;6.70;;;2.95;;
18867;SDS011;9563;49.240;9.088;2023-05-29T06:11:15;6.07;;;2.78;;
18867;SDS011;9563;49.240;9.088;2023-05-29T06:13:42;8.63;;;2.55;;
18867;SDS011;9563;49.240;9.088;2023-05-29T06:16:09;12.07;;;3.10;;
18867;SDS011;9563;49.240;9.088;2023-05-29T06:18:36;9.52;;;2.80;;
18867;SDS011;9563;49.240;9.088;2023-05-29T06:21:03;7.45;;;2.70;;
18867;SDS011;9563;49.240;9.088;2023-05-29T06:23:32;5.18;;;2.65;;
18867;SDS011;9563;49.240;9.088;2023-05-29T06:26:01;6.47;;;2.97;;
18867;SDS011;9563;49.240;9.088;2023-05-29T06:28:29;9.27;;;3.10;;
18867;SDS011;9563;49.240;9.088;2023-05-29T06:30:56;8.13;;;2.67;;
18867;SDS011;9563;49.240;9.088;2023-05-29T06:33:23;5.32;;;2.75;;
18867;SDS011;9563;49.240;9.088;2023-05-29T06:35:50;13.07;;;2.85;;
18867;SDS011;9563;49.240;9.088;2023-05-29T06:38:17;7.10;;;2.53;;
18867;SDS011;9563;49.240;9.088;2023-05-29T06:40:44;5.95;;;2.58;;
18867;SDS011;9563;49.240;9.088;2023-05-29T06:43:11;7.97;;;3.20;;
18867;SDS011;9563;49.240;9.088;2023-05-29T06:45:39;6.55;;;2.63;;
18867;SDS011;9563;49.240;9.088;2023-05-29T06:48:06;5.10;;;2.80;;
18867;SDS011;9563;49.240;9.088;2023-05-29T06:50:33;8.25;;;3.00;;
18867;SDS011;9563;49.240;9.088;2023-05-29T06:53:00;7.03;;;3.08;;
18867;SDS011;9563;49.240;9.088;2023-05-29T06:55:27;6.07;;;2.45;;
18867;SDS011;9563;49.240;9.088;2023-05-29T06:57:53;8.85;;;2.67;;
18867;SDS011;9563;49.240;9.088;2023-05-29T07:00:20;10.45;;;3.00;;
18867;SDS011;9563;49.240;9.088;2023-05-29T07:02:49;7.78;;;2.90;;
18867;SDS011;9563;49.240;9.088;2023-05-29T07:05:16;4.70;;;2.60;;
18867;SDS011;9563;49.240;9.088;2023-05-29T07:07:43;6.03;;;3.05;;
18867;SDS011;9563;49.240;9.088;2023-05-29T07:10:10;6.82;;;2.67;;
18867;SDS011;9563;49.240;9.088;2023-05-29T07:12:36;6.22;;;2.60;;
18867;SDS011;9563;49.240;9.088;2023-05-29T07:15:03;8.43;;;2.95;;
18867;SDS011;9563;49.240;9.088;2023-05-29T07:17:31;6.82;;;2.75;;
18867;SDS011;9563;49.240;9.088;2023-05-29T07:19:59;6.43;;;2.40;;
18867;SDS011;9563;49.240;9.088;2023-05-29T07:22:26;8.10;;;2.65;;
18867;SDS011;9563;49.240;9.088;2023-05-29T07:24:53;5.68;;;3.00;;
18867;SDS011;9563;49.240;9.088;2023-05-29T07:27:20;8.10;;;2.92;;
18867;SDS011;9563;49.240;9.088;2023-05-29T07:29:46;6.85;;;2.85;;
18867;SDS011;9563;49.240;9.088;2023-05-29T07:32:15;4.57;;;2.60;;
18867;SDS011;9563;49.240;9.088;2023-05-29T07:34:42;5.60;;;2.45;;
18867;SDS011;9563;49.240;9.088;2023-05-29T07:37:11;5.63;;;2.47;;
18867;SDS011;9563;49.240;9.088;2023-05-29T07:39:37;5.20;;;2.58;;
18867;SDS011;9563;49.240;9.088;2023-05-29T07:42:04;4.72;;;2.80;;
18867;SDS011;9563;49.240;9.088;2023-05-29T07:44:32;7.75;;;3.03;;
18867;SDS011;9563;49.240;9.088;2023-05-29T07:46:58;6.47;;;3.05;;
18867;SDS011;9563;49.240;9.088;2023-05-29T07:49:25;5.93;;;2.75;;
18867;SDS011;9563;49.240;9.088;2023-05-29T07:51:52;8.35;;;3.05;;
18867;SDS011;9563;49.240;9.088;2023-05-29T07:54:20;7.68;;;2.90;;
18867;SDS011;9563;49.240;9.088;2023-05-29T07:56:48;6.97;;;2.83;;
18867;SDS011;9563;49.240;9.088;2023-05-29T07:59:15;5.88;;;2.67;;
18867;SDS011;9563;49.240;9.088;2023-05-29T08:01:42;6.18;;;2.85;;
18867;SDS011;9563;49.240;9.088;2023-05-29T08:04:09;6.28;;;2.35;;
18867;SDS011;9563;49.240;9.088;2023-05-29T08:06:36;7.47;;;3.20;;
18867;SDS011;9563;49.240;9.088;2023-05-29T08:09:02;7.53;;;2.85;;
18867;SDS011;9563;49.240;9.088;2023-05-29T08:11:31;6.38;;;2.95;;
18867;SDS011;9563;49.240;9.088;2023-05-29T08:13:58;5.82;;;2.65;;
18867;SDS011;9563;49.240;9.088;2023-05-29T08:16:25;6.63;;;2.97;;
18867;SDS011;9563;49.240;9.088;2023-05-29T08:18:53;6.75;;;2.97;;
18867;SDS011;9563;49.240;9.088;2023-05-29T08:21:20;5.90;;;2.70;;
18867;SDS011;9563;49.240;9.088;2023-05-29T08:23:47;6.82;;;2.70;;
18867;SDS011;9563;49.240;9.088;2023-05-29T08:26:13;6.18;;;2.72;;
18867;SDS011;9563;49.240;9.088;2023-05-29T08:28:42;6.25;;;2.92;;
18867;SDS011;9563;49.240;9.088;2023-05-29T08:31:09;5.70;;;2.55;;
18867;SDS011;9563;49.240;9.088;2023-05-29T08:33:36;6.53;;;2.58;;
18867;SDS011;9563;49.240;9.088;2023-05-29T08:36:03;5.75;;;2.58;;
18867;SDS011;9563;49.240;9.088;2023-05-29T08:38:30;6.93;;;2.60;;
18867;SDS011;9563;49.240;9.088;2023-05-29T08:40:57;7.07;;;2.65;;
18867;SDS011;9563;49.240;9.088;2023-05-29T08:43:25;5.95;;;3.20;;
18867;SDS011;9563;49.240;9.088;2023-05-29T08:45:59;8.27;;;3.03;;
18867;SDS011;9563;49.240;9.088;2023-05-29T08:48:28;7.97;;;2.75;;
18867;SDS011;9563;49.240;9.088;2023-05-29T08:50:57;10.07;;;2.60;;
18867;SDS011;9563;49.240;9.088;2023-05-29T08:53:25;9.00;;;2.92;;
18867;SDS011;9563;49.240;9.088;2023-05-29T08:55:52;5.85;;;2.75;;
18867;SDS011;9563;49.240;9.088;2023-05-29T08:58:21;6.80;;;2.60;;
18867;SDS011;9563;49.240;9.088;2023-05-29T09:00:49;5.60;;;2.85;;
18867;SDS011;9563;49.240;9.088;2023-05-29T09:03:18;8.45;;;3.05;;
18867;SDS011;9563;49.240;9.088;2023-05-29T09:05:47;4.57;;;2.40;;
18867;SDS011;9563;49.240;9.088;2023-05-29T09:08:14;5.72;;;2.97;;
18867;SDS011;9563;49.240;9.088;2023-05-29T09:10:42;4.82;;;2.67;;
18867;SDS011;9563;49.240;9.088;2023-05-29T09:13:10;7.13;;;2.60;;
18867;SDS011;9563;49.240;9.088;2023-05-29T09:15:38;5.20;;;2.65;;
18867;SDS011;9563;49.240;9.088;2023-05-29T09:18:08;6.05;;;3.05;;
18867;SDS011;9563;49.240;9.088;2023-05-29T09:20:37;4.72;;;2.42;;
18867;SDS011;9563;49.240;9.088;2023-05-29T09:23:04;5.20;;;2.72;;
18867;SDS011;9563;49.240;9.088;2023-05-29T09:25:32;8.50;;;2.95;;
18867;SDS011;9563;49.240;9.088;2023-05-29T09:28:01;8.75;;;3.08;;
18867;SDS011;9563;49.240;9.088;2023-05-29T09:30:31;8.32;;;3.20;;
18867;SDS011;9563;49.240;9.088;2023-05-29T09:33:03;4.85;;;2.88;;
18867;SDS011;9563;49.240;9.088;2023-05-29T09:35:34;4.70;;;2.97;;
18867;SDS011;9563;49.240;9.088;2023-05-29T09:38:05;6.25;;;2.47;;
18867;SDS011;9563;49.240;9.088;2023-05-29T09:40:32;6.50;;;3.22;;
18867;SDS011;9563;49.240;9.088;2023-05-29T09:43:04;6.47;;;2.63;;
18867;SDS011;9563;49.240;9.088;2023-05-29T09:45:32;4.20;;;2.60;;
18867;SDS011;9563;49.240;9.088;2023-05-29T09:48:02;7.80;;;3.45;;
18867;SDS011;9563;49.240;9.088;2023-05-29T09:50:31;8.80;;;3.50;;
18867;SDS011;9563;49.240;9.088;2023-05-29T09:53:00;4.53;;;2.72;;
18867;SDS011;9563;49.240;9.088;2023-05-29T09:55:28;6.93;;;2.72;;
18867;SDS011;9563;49.240;9.088;2023-05-29T09:57:57;5.75;;;2.78;;
18867;SDS011;9563;49.240;9.088;2023-05-29T10:00:25;8.43;;;3.03;;
18867;SDS011;9563;49.240;9.088;2023-05-29T10:02:52;3.90;;;2.30;;
18867;SDS011;9563;49.240;9.088;2023-05-29T10:05:20;7.72;;;2.88;;
18867;SDS011;9563;49.240;9.088;2023-05-29T10:07:47;7.63;;;2.60;;
18867;SDS011;9563;49.240;9.088;2023-05-29T10:10:21;4.35;;;2.72;;
18867;SDS011;9563;49.240;9.088;2023-05-29T10:12:52;5.45;;;3.08;;
18867;SDS011;9563;49.240;9.088;2023-05-29T10:15:22;6.72;;;2.72;;
18867;SDS011;9563;49.240;9.088;2023-05-29T10:17:56;4.35;;;2.58;;
18867;SDS011;9563;49.240;9.088;2023-05-29T10:20:26;4.80;;;2.33;;
18867;SDS011;9563;49.240;9.088;2023-05-29T10:22:54;7.03;;;2.80;;
18867;SDS011;9563;49.240;9.088;2023-05-29T10:25:27;8.02;;;2.92;;
18867;SDS011;9563;49.240;9.088;2023-05-29T10:27:55;6.18;;;2.47;;
18867;SDS011;9563;49.240;9.088;2023-05-29T10:30:26;6.90;;;2.65;;
18867;SDS011;9563;49.240;9.088;2023-05-29T10:36:01;4.60;;;2.53;;
18867;SDS011;9563;49.240;9.088;2023-05-29T10:38:33;5.25;;;2.80;;
18867;SDS011;9563;49.240;9.088;2023-05-29T10:43:58;10.70;;;2.85;;
18867;SDS011;9563;49.240;9.088;2023-05-29T10:49:26;6.53;;;2.58;;
18867;SDS011;9563;49.240;9.088;2023-05-29T10:51:52;4.75;;;2.50;;
18867;SDS011;9563;49.240;9.088;2023-05-29T10:54:21;4.38;;;2.83;;
18867;SDS011;9563;49.240;9.088;2023-05-29T10:56:52;4.10;;;2.67;;
18867;SDS011;9563;49.240;9.088;2023-05-29T10:59:22;3.70;;;2.33;;
18867;SDS011;9563;49.240;9.088;2023-05-29T11:01:52;4.50;;;2.67;;
18867;SDS011;9563;49.240;9.088;2023-05-29T11:04:26;8.43;;;2.80;;
18867;SDS011;9563;49.240;9.088;2023-05-29T11:06:57;6.45;;;2.85;;
18867;SDS011;9563;49.240;9.088;2023-05-29T11:09:28;5.75;;;2.83;;
18867;SDS011;9563;49.240;9.088;2023-05-29T11:12:14;5.78;;;2.80;;
18867;SDS011;9563;49.240;9.088;2023-05-29T11:14:54;3.40;;;2.40;;
18867;SDS011;9563;49.240;9.088;2023-05-29T11:17:28;7.32;;;4.18;;
18867;SDS011;9563;49.240;9.088;2023-05-29T11:19:56;13.35;;;7.57;;
18867;SDS011;9563;49.240;9.088;2023-05-29T11:22:26;14.57;;;8.43;;
18867;SDS011;9563;49.240;9.088;2023-05-29T11:24:57;32.15;;;20.65;;
18867;SDS011;9563;49.240;9.088;2023-05-29T11:27:28;21.35;;;14.45;;
18867;SDS011;9563;49.240;9.088;2023-05-29T11:29:56;5.80;;;2.70;;
18867;SDS011;9563;49.240;9.088;2023-05-29T11:32:23;4.78;;;2.47;;
18867;SDS011;9563;49.240;9.088;2023-05-29T11:34:53;10.40;;;2.70;;
18867;SDS011;9563;49.240;9.088;2023-05-29T11:37:25;8.05;;;2.83;;
18867;SDS011;9563;49.240;9.088;2023-05-29T11:39:52;5.82;;;2.60;;
18867;SDS011;9563;49.240;9.088;2023-05-29T11:42:19;11.88;;;7.47;;
18867;SDS011;9563;49.240;9.088;2023-05-29T11:44:47;48.38;;;31.95;;
18867;SDS011;9563;49.240;9.088;2023-05-29T11:47:14;41.35;;;25.58;;
18867;SDS011;9563;49.240;9.088;2023-05-29T11:49:41;29.10;;;19.33;;
18867;SDS011;9563;49.240;9.088;2023-05-29T11:52:08;27.90;;;19.23;;
18867;SDS011;9563;49.240;9.088;2023-05-29T11:54:35;11.27;;;6.68;;
18867;SDS011;9563;49.240;9.088;2023-05-29T11:57:03;7.07;;;2.85;;
18867;SDS011;9563;49.240;9.088;2023-05-29T11:59:30;4.65;;;3.00;;
18867;SDS011;9563;49.240;9.088;2023-05-29T12:02:01;5.93;;;2.40;;
18867;SDS011;9563;49.240;9.088;2023-05-29T12:04:28;5.90;;;3.35;;
18867;SDS011;9563;49.240;9.088;2023-05-29T12:06:55;6.80;;;3.05;;
18867;SDS011;9563;49.240;9.088;2023-05-29T12:09:25;5.07;;;2.90;;
18867;SDS011;9563;49.240;9.088;2023-05-29T12:11:53;4.63;;;2.67;;
18867;SDS011;9563;49.240;9.088;2023-05-29T12:14:20;4.28;;;2.47;;
18867;SDS011;9563;49.240;9.088;2023-05-29T12:16:47;18.70;;;4.85;;
18867;SDS011;9563;49.240;9.088;2023-05-29T12:19:15;6.68;;;2.38;;
18867;SDS011;9563;49.240;9.088;2023-05-29T12:21:42;9.85;;;2.90;;
18867;SDS011;9563;49.240;9.088;2023-05-29T12:24:09;4.60;;;2.40;;
18867;SDS011;9563;49.240;9.088;2023-05-29T12:26:36;3.92;;;2.40;;
18867;SDS011;9563;49.240;9.088;2023-05-29T12:29:03;5.95;;;2.65;;
18867;SDS011;9563;49.240;9.088;2023-05-29T12:31:31;4.50;;;2.63;;
18867;SDS011;9563;49.240;9.088;2023-05-29T12:33:59;4.68;;;2.80;;
18867;SDS011;9563;49.240;9.088;2023-05-29T12:36:28;4.18;;;2.47;;
18867;SDS011;9563;49.240;9.088;2023-05-29T12:38:56;6.57;;;2.38;;
18867;SDS011;9563;49.240;9.088;2023-05-29T12:41:23;5.47;;;2.30;;
18867;SDS011;9563;49.240;9.088;2023-05-29T12:43:52;5.53;;;2.47;;
18867;SDS011;9563;49.240;9.088;2023-05-29T12:46:20;4.38;;;2.45;;
18867;SDS011;9563;49.240;9.088;2023-05-29T12:48:48;6.20;;;2.60;;
18867;SDS011;9563;49.240;9.088;2023-05-29T12:51:17;5.30;;;2.58;;
18867;SDS011;9563;49.240;9.088;2023-05-29T12:53:49;4.75;;;2.72;;
18867;SDS011;9563;49.240;9.088;2023-05-29T12:56:19;6.38;;;2.88;;
18867;SDS011;9563;49.240;9.088;2023-05-29T12:58:48;9.70;;;2.47;;
18867;SDS011;9563;49.240;9.088;2023-05-29T13:01:16;3.70;;;2.70;;
18867;SDS011;9563;49.240;9.088;2023-05-29T13:03:43;4.35;;;2.53;;
18867;SDS011;9563;49.240;9.088;2023-05-29T13:06:11;6.22;;;2.22;;
18867;SDS011;9563;49.240;9.088;2023-05-29T13:08:37;3.75;;;2.35;;
18867;SDS011;9563;49.240;9.088;2023-05-29T13:11:06;4.82;;;2.10;;
18867;SDS011;9563;49.240;9.088;2023-05-29T13:13:33;7.57;;;2.85;;
18867;SDS011;9563;49.240;9.088;2023-05-29T13:15:59;5.07;;;2.45;;
18867;SDS011;9563;49.240;9.088;2023-05-29T13:18:26;8.68;;;2.40;;
18867;SDS011;9563;49.240;9.088;2023-05-29T13:20:53;3.47;;;2.35;;
18867;SDS011;9563;49.240;9.088;2023-05-29T13:23:20;11.40;;;2.60;;
18867;SDS011;9563;49.240;9.088;2023-05-29T13:25:47;4.20;;;2.40;;
18867;SDS011;9563;49.240;9.088;2023-05-29T13:28:15;6.05;;;2.55;;
18867;SDS011;9563;49.240;9.088;2023-05-29T13:30:43;5.72;;;2.50;;
18867;SDS011;9563;49.240;9.088;2023-05-29T13:33:10;7.00;;;3.00;;
18867;SDS011;9563;49.240;9.088;2023-05-29T13:35:37;4.35;;;2.58;;
18867;SDS011;9563;49.240;9.088;2023-05-29T13:38:05;5.20;;;2.33;;
18867;SDS011;9563;49.240;9.088;2023-05-29T13:40:32;3.85;;;2.17;;
18867;SDS011;9563;49.240;9.088;2023-05-29T13:42:59;5.88;;;2.50;;
18867;SDS011;9563;49.240;9.088;2023-05-29T13:45:27;4.95;;;2.72;;
18867;SDS011;9563;49.240;9.088;2023-05-29T13:47:54;4.50;;;2.30;;
18867;SDS011;9563;49.240;9.088;2023-05-29T13:50:21;5.20;;;2.13;;
18867;SDS011;9563;49.240;9.088;2023-05-29T13:52:48;6.13;;;2.30;;
18867;SDS011;9563;49.240;9.088;2023-05-29T13:55:16;5.82;;;2.15;;
18867;SDS011;9563;49.240;9.088;2023-05-29T13:57:43;5.72;;;2.20;;
18867;SDS011;9563;49.240;9.088;2023-05-29T14:00:10;3.33;;;2.38;;
18867;SDS011;9563;49.240;9.088;2023-05-29T14:02:39;5.25;;;2.20;;
18867;SDS011;9563;49.240;9.088;2023-05-29T14:05:06;5.45;;;2.65;;
18867;SDS011;9563;49.240;9.088;2023-05-29T14:07:34;5.38;;;2.40;;
18867;SDS011;9563;49.240;9.088;2023-05-29T14:10:01;4.57;;;2.20;;
18867;SDS011;9563;49.240;9.088;2023-05-29T14:12:28;5.32;;;2.50;;
18867;SDS011;9563;49.240;9.088;2023-05-29T14:14:55;4.57;;;2.65;;
18867;SDS011;9563;49.240;9.088;2023-05-29T14:17:22;4.82;;;1.92;;
18867;SDS011;9563;49.240;9.088;2023-05-29T14:19:52;3.22;;;2.20;;
18867;SDS011;9563;49.240;9.088;2023-05-29T14:22:20;4.70;;;2.55;;
18867;SDS011;9563;49.240;9.088;2023-05-29T14:24:46;3.22;;;2.13;;
18867;SDS011;9563;49.240;9.088;2023-05-29T14:27:13;5.63;;;2.40;;
18867;SDS011;9563;49.240;9.088;2023-05-29T14:29:40;4.03;;;2.25;;
18867;SDS011;9563;49.240;9.088;2023-05-29T14:32:07;3.75;;;2.58;;
18867;SDS011;9563;49.240;9.088;2023-05-29T14:34:33;4.22;;;2.13;;
18867;SDS011;9563;49.240;9.088;2023-05-29T14:37:02;5.07;;;2.17;;
18867;SDS011;9563;49.240;9.088;2023-05-29T14:39:29;5.70;;;2.03;;
18867;SDS011;9563;49.240;9.088;2023-05-29T14:41:55;6.47;;;2.50;;
18867;SDS011;9563;49.240;9.088;2023-05-29T14:44:22;6.07;;;2.50;;
18867;SDS011;9563;49.240;9.088;2023-05-29T14:46:49;2.65;;;2.13;;
18867;SDS011;9563;49.240;9.088;2023-05-29T14:49:16;4.35;;;2.28;;
18867;SDS011;9563;49.240;9.088;2023-05-29T14:51:43;4.35;;;2.08;;
18867;SDS011;9563;49.240;9.088;2023-05-29T14:54:11;5.18;;;2.45;;
18867;SDS011;9563;49.240;9.088;2023-05-29T14:56:38;9.30;;;2.67;;
18867;SDS011;9563;49.240;9.088;2023-05-29T14:59:05;3.70;;;2.25;;
18867;SDS011;9563;49.240;9.088;2023-05-29T15:01:32;5.35;;;2.03;;
18867;SDS011;9563;49.240;9.088;2023-05-29T15:03:58;3.93;;;2.50;;
18867;SDS011;9563;49.240;9.088;2023-05-29T15:06:25;4.50;;;2.53;;
18867;SDS011;9563;49.240;9.088;2023-05-29T15:08:53;3.45;;;2.10;;
18867;SDS011;9563;49.240;9.088;2023-05-29T15:11:22;3.50;;;2.20;;
18867;SDS011;9563;49.240;9.088;2023-05-29T15:13:49;3.55;;;2.33;;
18867;SDS011;9563;49.240;9.088;2023-05-29T15:16:16;5.18;;;2.38;;
18867;SDS011;9563;49.240;9.088;2023-05-29T15:18:43;3.20;;;2.10;;
18867;SDS011;9563;49.240;9.088;2023-05-29T15:21:09;4.78;;;2.35;;
18867;SDS011;9563;49.240;9.088;2023-05-29T15:23:36;6.50;;;2.30;;
18867;SDS011;9563;49.240;9.088;2023-05-29T15:26:04;4.85;;;2.15;;
18867;SDS011;9563;49.240;9.088;2023-05-29T15:28:32;5.40;;;2.28;;
18867;SDS011;9563;49.240;9.088;2023-05-29T15:30:59;5.50;;;2.53;;
18867;SDS011;9563;49.240;9.088;2023-05-29T15:33:26;5.40;;;2.60;;
18867;SDS011;9563;49.240;9.088;2023-05-29T15:35:53;5.35;;;2.60;;
18867;SDS011;9563;49.240;9.088;2023-05-29T15:38:20;4.00;;;2.47;;
18867;SDS011;9563;49.240;9.088;2023-05-29T15:40:47;5.45;;;2.35;;
18867;SDS011;9563;49.240;9.088;2023-05-29T15:43:13;6.47;;;2.65;;
18867;SDS011;9563;49.240;9.088;2023-05-29T15:45:42;4.78;;;2.90;;
18867;SDS011;9563;49.240;9.088;2023-05-29T15:48:09;4.55;;;2.42;;
18867;SDS011;9563;49.240;9.088;2023-05-29T15:50:35;5.72;;;2.90;;
18867;SDS011;9563;49.240;9.088;2023-05-29T15:53:02;4.65;;;2.30;;
18867;SDS011;9563;49.240;9.088;2023-05-29T15:55:29;7.72;;;2.63;;
18867;SDS011;9563;49.240;9.088;2023-05-29T15:57:56;4.80;;;2.40;;
18867;SDS011;9563;49.240;9.088;2023-05-29T16:00:23;2.97;;;2.28;;
18867;SDS011;9563;49.240;9.088;2023-05-29T16:02:51;3.55;;;2.90;;
18867;SDS011;9563;49.240;9.088;2023-05-29T16:05:18;4.47;;;2.58;;
18867;SDS011;9563;49.240;9.088;2023-05-29T16:07:45;4.70;;;2.67;;
18867;SDS011;9563;49.240;9.088;2023-05-29T16:10:13;4.80;;;2.70;;
18867;SDS011;9563;49.240;9.088;2023-05-29T16:12:42;4.65;;;2.90;;
18867;SDS011;9563;49.240;9.088;2023-05-29T16:15:10;5.30;;;3.28;;
18867;SDS011;9563;49.240;9.088;2023-05-29T16:17:37;4.75;;;2.67;;
18867;SDS011;9563;49.240;9.088;2023-05-29T16:20:06;3.95;;;2.95;;
18867;SDS011;9563;49.240;9.088;2023-05-29T16:22:33;7.13;;;2.67;;
18867;SDS011;9563;49.240;9.088;2023-05-29T16:25:00;4.57;;;2.70;;
18867;SDS011;9563;49.240;9.088;2023-05-29T16:27:27;8.55;;;2.80;;
18867;SDS011;9563;49.240;9.088;2023-05-29T16:29:54;6.22;;;3.00;;
18867;SDS011;9563;49.240;9.088;2023-05-29T16:32:21;5.05;;;2.83;;
18867;SDS011;9563;49.240;9.088;2023-05-29T16:34:48;6.45;;;2.50;;
18867;SDS011;9563;49.240;9.088;2023-05-29T16:37:16;5.82;;;2.55;;
18867;SDS011;9563;49.240;9.088;2023-05-29T16:39:43;3.92;;;2.53;;
18867;SDS011;9563;49.240;9.088;2023-05-29T16:42:10;4.82;;;2.80;;
18867;SDS011;9563;49.240;9.088;2023-05-29T16:44:37;5.43;;;3.05;;
18867;SDS011;9563;49.240;9.088;2023-05-29T16:47:04;4.93;;;3.13;;
18867;SDS011;9563;49.240;9.088;2023-05-29T16:49:31;9.05;;;3.00;;
18867;SDS011;9563;49.240;9.088;2023-05-29T16:51:58;3.60;;;2.58;;
18867;SDS011;9563;49.240;9.088;2023-05-29T16:54:26;5.63;;;3.03;;
18867;SDS011;9563;49.240;9.088;2023-05-29T16:56:55;4.45;;;3.00;;
18867;SDS011;9563;49.240;9.088;2023-05-29T16:59:22;3.97;;;2.83;;
18867;SDS011;9563;49.240;9.088;2023-05-29T17:01:50;6.85;;;3.42;;
18867;SDS011;9563;49.240;9.088;2023-05-29T17:04:16;3.75;;;2.80;;
18867;SDS011;9563;49.240;9.088;2023-05-29T17:06:43;6.45;;;3.33;;
18867;SDS011;9563;49.240;9.088;2023-05-29T17:09:10;7.95;;;3.30;;
18867;SDS011;9563;49.240;9.088;2023-05-29T17:11:39;6.20;;;3.50;;
18867;SDS011;9563;49.240;9.088;2023-05-29T17:14:06;4.68;;;3.08;;
18867;SDS011;9563;49.240;9.088;2023-05-29T17:16:33;6.75;;;3.13;;
18867;SDS011;9563;49.240;9.088;2023-05-29T17:19:00;4.93;;;3.25;;
18867;SDS011;9563;49.240;9.088;2023-05-29T17:21:27;10.10;;;3.50;;
18867;SDS011;9563;49.240;9.088;2023-05-29T17:23:54;6.35;;;3.40;;
18867;SDS011;9563;49.240;9.088;2023-05-29T17:26:21;6.45;;;3.28;;
18867;SDS011;9563;49.240;9.088;2023-05-29T17:28:50;6.90;;;3.40;;
18867;SDS011;9563;49.240;9.088;2023-05-29T17:31:16;6.25;;;3.08;;
18867;SDS011;9563;49.240;9.088;2023-05-29T17:33:43;6.13;;;3.22;;
18867;SDS011;9563;49.240;9.088;2023-05-29T17:36:11;7.30;;;3.70;;
18867;SDS011;9563;49.240;9.088;2023-05-29T17:38:38;7.22;;;3.67;;
18867;SDS011;9563;49.240;9.088;2023-05-29T17:41:05;10.55;;;3.63;;
18867;SDS011;9563;49.240;9.088;2023-05-29T17:43:32;5.93;;;3.20;;
18867;SDS011;9563;49.240;9.088;2023-05-29T17:46:00;5.53;;;3.30;;
18867;SDS011;9563;49.240;9.088;2023-05-29T17:48:27;5.32;;;3.38;;
18867;SDS011;9563;49.240;9.088;2023-05-29T17:50:54;7.05;;;3.40;;
18867;SDS011;9563;49.240;9.088;2023-05-29T17:53:21;7.82;;;3.22;;
18867;SDS011;9563;49.240;9.088;2023-05-29T17:55:47;6.85;;;3.75;;
18867;SDS011;9563;49.240;9.088;2023-05-29T17:58:14;6.57;;;3.30;;
18867;SDS011;9563;49.240;9.088;2023-05-29T18:00:41;5.43;;;3.13;;
18867;SDS011;9563;49.240;9.088;2023-05-29T18:03:10;4.70;;;3.13;;
18867;SDS011;9563;49.240;9.088;2023-05-29T18:05:36;8.93;;;3.92;;
18867;SDS011;9563;49.240;9.088;2023-05-29T18:08:03;5.78;;;3.17;;
18867;SDS011;9563;49.240;9.088;2023-05-29T18:10:30;7.10;;;3.65;;
18867;SDS011;9563;49.240;9.088;2023-05-29T18:12:57;6.57;;;3.30;;
18867;SDS011;9563;49.240;9.088;2023-05-29T18:15:24;6.90;;;3.35;;
18867;SDS011;9563;49.240;9.088;2023-05-29T18:17:51;6.75;;;3.92;;
18867;SDS011;9563;49.240;9.088;2023-05-29T18:20:19;7.93;;;3.50;;
18867;SDS011;9563;49.240;9.088;2023-05-29T18:22:53;6.80;;;3.47;;
18867;SDS011;9563;49.240;9.088;2023-05-29T18:25:20;6.05;;;3.42;;
18867;SDS011;9563;49.240;9.088;2023-05-29T18:27:47;7.32;;;3.35;;
18867;SDS011;9563;49.240;9.088;2023-05-29T18:30:15;6.50;;;3.10;;
18867;SDS011;9563;49.240;9.088;2023-05-29T18:32:42;6.45;;;2.92;;
18867;SDS011;9563;49.240;9.088;2023-05-29T18:35:09;8.13;;;3.25;;
18867;SDS011;9563;49.240;9.088;2023-05-29T18:37:37;9.40;;;3.08;;
18867;SDS011;9563;49.240;9.088;2023-05-29T18:40:04;6.80;;;3.58;;
18867;SDS011;9563;49.240;9.088;2023-05-29T18:42:32;5.35;;;3.20;;
18867;SDS011;9563;49.240;9.088;2023-05-29T18:44:59;6.10;;;3.33;;
18867;SDS011;9563;49.240;9.088;2023-05-29T18:47:26;7.45;;;3.42;;
18867;SDS011;9563;49.240;9.088;2023-05-29T18:49:53;4.85;;;3.20;;
18867;SDS011;9563;49.240;9.088;2023-05-29T18:54:49;7.80;;;3.08;;
18867;SDS011;9563;49.240;9.088;2023-05-29T18:57:16;4.93;;;3.20;;
18867;SDS011;9563;49.240;9.088;2023-05-29T18:59:42;5.70;;;3.47;;
18867;SDS011;9563;49.240;9.088;2023-05-29T19:02:10;4.78;;;3.10;;
18867;SDS011;9563;49.240;9.088;2023-05-29T19:04:36;9.55;;;3.42;;
18867;SDS011;9563;49.240;9.088;2023-05-29T19:07:04;8.00;;;3.03;;
18867;SDS011;9563;49.240;9.088;2023-05-29T19:09:31;5.07;;;3.03;;
18867;SDS011;9563;49.240;9.088;2023-05-29T19:11:59;9.02;;;3.42;;
18867;SDS011;9563;49.240;9.088;2023-05-29T19:14:27;6.18;;;3.40;;
18867;SDS011;9563;49.240;9.088;2023-05-29T19:16:53;4.50;;;3.30;;
18867;SDS011;9563;49.240;9.088;2023-05-29T19:19:20;7.80;;;3.65;;
18867;SDS011;9563;49.240;9.088;2023-05-29T19:21:47;7.88;;;3.17;;
18867;SDS011;9563;49.240;9.088;2023-05-29T19:24:15;4.75;;;3.40;;
18867;SDS011;9563;49.240;9.088;2023-05-29T19:26:43;5.22;;;3.13;;
18867;SDS011;9563;49.240;9.088;2023-05-29T19:29:13;6.60;;;3.47;;
18867;SDS011;9563;49.240;9.088;2023-05-29T19:31:42;5.68;;;3.05;;
18867;SDS011;9563;49.240;9.088;2023-05-29T19:34:12;6.15;;;3.10;;
18867;SDS011;9563;49.240;9.088;2023-05-29T19:36:39;5.93;;;3.38;;
18867;SDS011;9563;49.240;9.088;2023-05-29T19:39:06;5.50;;;3.28;;
18867;SDS011;9563;49.240;9.088;2023-05-29T19:41:32;6.05;;;3.35;;
18867;SDS011;9563;49.240;9.088;2023-05-29T19:44:01;6.32;;;3.60;;
18867;SDS011;9563;49.240;9.088;2023-05-29T19:46:30;7.20;;;3.55;;
18867;SDS011;9563;49.240;9.088;2023-05-29T19:48:57;6.80;;;3.30;;
18867;SDS011;9563;49.240;9.088;2023-05-29T19:51:24;5.47;;;3.22;;
18867;SDS011;9563;49.240;9.088;2023-05-29T19:53:51;8.45;;;3.33;;
18867;SDS011;9563;49.240;9.088;2023-05-29T19:56:18;4.82;;;3.30;;
18867;SDS011;9563;49.240;9.088;2023-05-29T19:58:45;4.13;;;2.78;;
18867;SDS011;9563;49.240;9.088;2023-05-29T20:01:13;7.40;;;3.20;;
18867;SDS011;9563;49.240;9.088;2023-05-29T20:03:42;6.75;;;3.10;;
18867;SDS011;9563;49.240;9.088;2023-05-29T20:06:08;5.95;;;3.33;;
18867;SDS011;9563;49.240;9.088;2023-05-29T20:08:35;13.23;;;3.65;;
18867;SDS011;9563;49.240;9.088;2023-05-29T20:11:03;5.55;;;3.30;;
18867;SDS011;9563;49.240;9.088;2023-05-29T20:13:30;5.57;;;3.25;;
18867;SDS011;9563;49.240;9.088;2023-05-29T20:15:57;6.97;;;3.10;;